Time;durP1;ratioP1;P1;durP2;ratioP2;P2;SDS_P1;SDS_P2;PMS_P1;PMS_P2;Temp;Humidity;BMP_temperature;BMP_pressure;BME280_temperature;BME280_humidity;BME280_pressure;Samples;Min_cycle;Max_cycle;Signal;HPM_P1;HPM_P2
2023/01/05 00:02:12;;;;;;;0.85;0.40;;;10.30;15.20;;;;;;7356682;19;20026;-78
2023/01/05 00:04:47;;;;;;;0.50;0.50;;;10.30;15.20;;;;;;7360633;19;20082;-81
2023/01/05 00:07:20;;;;;;;0.68;0.50;;;10.30;15.20;;;;;;7358008;19;20019;-80
2023/01/05 00:09:49;;;;;;;1.02;0.47;;;10.40;15.30;;;;;;7377220;19;20876;-80
2023/01/05 00:23:11;;;;;;;0.68;0.45;;;10.50;12.70;;;;;;7360463;19;20379;-81
2023/01/05 00:25:42;;;;;;;1.00;0.30;;;10.50;12.80;;;;;;7365980;19;20010;-81
2023/01/05 00:28:12;;;;;;;0.95;0.17;;;10.50;12.50;;;;;;7366767;19;20029;-81
2023/01/05 00:30:44;;;;;;;0.38;0.30;;;10.60;11.90;;;;;;7388694;19;20493;-81
2023/01/05 00:33:15;;;;;;;0.90;0.40;;;10.60;11.80;;;;;;7364086;19;20054;-80
2023/01/05 00:35:45;;;;;;;0.70;0.40;;;10.50;11.70;;;;;;7365915;19;20482;-81
2023/01/05 00:38:18;;;;;;;0.50;0.30;;;10.60;11.80;;;;;;7367148;19;20010;-81
2023/01/05 00:40:48;;;;;;;0.68;0.40;;;10.60;11.70;;;;;;7369769;19;20021;-80
2023/01/05 00:43:17;;;;;;;0.75;0.35;;;10.60;11.70;;;;;;7367795;19;20015;-80
2023/01/05 00:45:47;;;;;;;0.55;0.28;;;10.60;11.80;;;;;;7388998;19;20010;-81
2023/01/05 00:48:17;;;;;;;1.40;0.38;;;10.60;11.80;;;;;;7368413;19;20011;-81
2023/01/05 00:50:50;;;;;;;0.50;0.20;;;10.60;11.80;;;;;;7393569;19;20082;-81
2023/01/05 00:53:23;;;;;;;0.35;0.25;;;10.60;11.60;;;;;;7398674;19;19999;-81
2023/01/05 00:55:59;;;;;;;0.30;0.20;;;10.60;11.50;;;;;;7377252;19;20021;-80
2023/01/05 00:58:28;;;;;;;0.20;0.20;;;10.60;11.60;;;;;;7360860;19;20022;-81
2023/01/05 01:00:58;;;;;;;1.15;0.38;;;10.70;11.40;;;;;;7385471;19;20074;-81
2023/01/05 01:03:28;;;;;;;0.30;0.20;;;10.60;11.20;;;;;;7361742;19;20010;-81
2023/01/05 01:05:58;;;;;;;2.28;0.20;;;10.70;11.90;;;;;;7366649;19;20011;-81
2023/01/05 01:08:31;;;;;;;0.28;0.20;;;10.70;11.20;;;;;;7389137;19;20789;-80
2023/01/05 01:11:06;;;;;;;0.40;0.30;;;10.70;11.30;;;;;;7391828;19;20014;-81
2023/01/05 01:13:37;;;;;;;0.20;0.20;;;10.70;11.50;;;;;;7390282;19;20010;-80
2023/01/05 01:16:08;;;;;;;0.38;0.22;;;10.70;11.90;;;;;;7393595;19;20189;-80
2023/01/05 01:18:38;;;;;;;1.48;0.30;;;10.70;11.70;;;;;;7385452;19;20027;-80
2023/01/05 01:21:08;;;;;;;0.60;0.30;;;10.70;11.90;;;;;;7393600;19;20467;-81
2023/01/05 01:23:41;;;;;;;0.30;0.20;;;10.70;12.20;;;;;;7392025;19;20015;-80
2023/01/05 01:26:12;;;;;;;0.20;0.10;;;10.70;12.10;;;;;;7394806;19;20014;-79
2023/01/05 01:28:43;;;;;;;0.13;0.10;;;10.70;12.30;;;;;;7388126;19;20022;-81
2023/01/05 01:31:12;;;;;;;0.52;0.30;;;10.70;12.30;;;;;;7394257;19;20028;-81
2023/01/05 01:33:42;;;;;;;1.02;0.30;;;10.70;12.50;;;;;;7388219;19;20410;-80
2023/01/05 01:36:12;;;;;;;0.50;0.30;;;10.80;12.70;;;;;;7394108;19;20020;-80
2023/01/05 01:38:45;;;;;;;0.25;0.20;;;10.70;12.70;;;;;;7385909;19;20447;-80
2023/01/05 01:41:15;;;;;;;0.10;0.10;;;10.70;13.10;;;;;;7393058;19;20022;-81
2023/01/05 01:43:47;;;;;;;0.20;0.20;;;10.70;13.20;;;;;;7390258;19;20021;-80
2023/01/05 01:46:18;;;;;;;0.38;0.20;;;10.70;12.90;;;;;;7394156;19;20011;-81
2023/01/05 01:48:52;;;;;;;1.95;0.25;;;10.70;12.70;;;;;;7387446;19;20020;-81
2023/01/05 01:51:28;;;;;;;0.32;0.20;;;10.70;12.90;;;;;;7393463;19;20478;-80
2023/01/05 01:54:04;;;;;;;0.40;0.17;;;10.70;12.90;;;;;;7390204;19;20021;-81
2023/01/05 01:56:38;;;;;;;0.13;0.10;;;10.70;13.10;;;;;;7394246;19;20029;-81
2023/01/05 01:59:08;;;;;;;1.45;0.30;;;10.70;13.50;;;;;;7387167;19;20066;-81
2023/01/05 02:01:38;;;;;;;0.30;0.10;;;10.70;13.60;;;;;;7391166;19;20483;-81
2023/01/05 02:04:09;;;;;;;0.30;0.10;;;10.70;13.80;;;;;;7391039;19;20016;-80
2023/01/05 02:06:39;;;;;;;0.68;0.30;;;10.70;14.20;;;;;;7394063;19;20031;-80
2023/01/05 02:09:11;;;;;;;0.52;0.30;;;10.70;14.20;;;;;;7386315;19;20024;-81
2023/01/05 02:11:52;;;;;;;0.68;0.20;;;10.70;14.50;;;;;;7393542;19;20066;-81
2023/01/05 02:14:29;;;;;;;1.65;0.20;;;10.70;14.40;;;;;;7391492;19;20006;-80
2023/01/05 02:17:11;;;;;;;0.30;0.20;;;10.60;14.70;;;;;;7393034;19;20013;-81
2023/01/05 02:20:21;;;;;;;1.10;0.10;;;10.60;14.90;;;;;;7385648;19;20475;-81
2023/01/05 02:23:18;;;;;;;0.40;0.20;;;10.70;15.00;;;;;;7389022;19;20018;-80
2023/01/05 02:26:14;;;;;;;0.20;0.20;;;10.60;15.40;;;;;;7391586;19;20026;-82
2023/01/05 02:28:58;;;;;;;0.40;0.20;;;10.60;15.40;;;;;;7383643;19;20014;-80
2023/01/05 02:31:34;;;;;;;0.20;0.20;;;10.60;15.40;;;;;;7392409;19;20018;-80
2023/01/05 02:34:16;;;;;;;0.70;0.25;;;10.60;15.40;;;;;;7390275;19;20021;-80
2023/01/05 02:36:53;;;;;;;0.70;0.40;;;10.60;15.40;;;;;;7392964;19;20358;-79
2023/01/05 02:39:29;;;;;;;0.22;0.13;;;10.60;15.40;;;;;;7384031;19;20018;-80
2023/01/05 02:42:02;;;;;;;0.55;0.20;;;10.60;15.40;;;;;;7391208;19;20011;-81
2023/01/05 02:44:34;;;;;;;1.20;0.10;;;10.60;15.50;;;;;;7391681;19;20006;-81
2023/01/05 02:47:08;;;;;;;1.10;0.10;;;10.60;15.40;;;;;;7391808;19;20017;-81
2023/01/05 02:49:42;;;;;;;0.45;0.10;;;10.60;15.40;;;;;;7385535;19;20016;-81
2023/01/05 02:52:14;;;;;;;0.10;0.10;;;10.70;15.50;;;;;;7389932;19;20019;-81
2023/01/05 02:54:49;;;;;;;0.20;0.20;;;10.70;15.20;;;;;;7392120;19;20010;-81
2023/01/05 02:57:45;;;;;;;2.25;0.30;;;10.70;15.00;;;;;;7392976;19;20010;-81
2023/01/05 03:00:18;;;;;;;0.10;0.10;;;10.70;14.60;;;;;;7384735;19;20076;-81
2023/01/05 03:02:54;;;;;;;1.20;0.30;;;10.70;14.90;;;;;;7388029;19;20039;-81
2023/01/05 03:05:29;;;;;;;0.10;0.10;;;10.60;15.10;;;;;;7392681;19;20049;-80
2023/01/05 03:08:09;;;;;;;0.80;0.30;;;10.70;15.10;;;;;;7391120;19;20043;-81
2023/01/05 03:13:43;;;;;;;1.75;0.50;;;10.70;15.20;;;;;;7388327;19;20025;-81
2023/01/05 03:16:17;;;;;;;0.43;0.10;;;10.70;15.00;;;;;;7391637;19;20007;-79
2023/01/05 03:35:36;;;;;;;0.22;0.10;;;11.00;14.10;;;;;;7390432;19;20019;-81
2023/01/05 03:38:15;;;;;;;0.20;0.17;;;11.10;13.60;;;;;;7389307;19;20006;-80
2023/01/05 03:40:48;;;;;;;0.17;0.10;;;11.10;13.30;;;;;;7385445;19;20031;-81
2023/01/05 03:43:17;;;;;;;0.10;0.10;;;11.00;13.50;;;;;;7387251;19;20431;-80
2023/01/05 03:45:54;;;;;;;0.88;0.40;;;11.00;13.70;;;;;;7389905;19;20002;-81
2023/01/05 03:48:24;;;;;;;0.25;0.10;;;11.10;13.10;;;;;;7387772;19;20022;-80
2023/01/05 03:50:57;;;;;;;0.15;0.10;;;11.60;9.80;;;;;;7387910;19;20495;-81
2023/01/05 03:53:26;;;;;;;0.28;0.13;;;11.60;10.70;;;;;;7386444;19;20478;-81
2023/01/05 03:55:56;;;;;;;0.10;0.10;;;11.70;11.40;;;;;;7388947;19;20003;-81
2023/01/05 03:58:26;;;;;;;0.10;0.10;;;11.60;12.50;;;;;;7386819;19;20552;-80
2023/01/05 04:00:56;;;;;;;0.40;0.10;;;11.60;12.90;;;;;;7387272;19;20006;-81
2023/01/05 04:03:26;;;;;;;0.28;0.10;;;11.60;12.50;;;;;;7386318;19;20014;-81
2023/01/05 04:06:03;;;;;;;0.10;0.10;;;11.70;11.50;;;;;;7389340;19;20018;-80
2023/01/05 04:08:33;;;;;;;0.00;0.00;;;11.70;11.00;;;;;;7381621;19;20554;-80
2023/01/05 04:11:13;;;;;;;0.10;0.00;;;11.70;11.70;;;;;;7389412;19;20483;-80
2023/01/05 04:13:43;;;;;;;0.13;0.10;;;11.70;11.70;;;;;;7386030;19;20025;-80
2023/01/05 04:16:13;;;;;;;0.00;0.00;;;11.80;11.20;;;;;;7387994;19;20424;-80
2023/01/05 04:18:43;;;;;;;0.05;0.05;;;11.70;11.50;;;;;;7381443;19;20014;-81
2023/01/05 04:21:15;;;;;;;0.43;0.10;;;11.70;11.20;;;;;;7389250;19;20018;-80
2023/01/05 04:23:45;;;;;;;0.45;0.00;;;11.80;11.40;;;;;;7386311;19;20025;-80
2023/01/05 04:26:14;;;;;;;0.30;0.20;;;11.80;11.40;;;;;;7389633;19;20018;-81
2023/01/05 04:28:44;;;;;;;0.43;0.20;;;11.80;12.30;;;;;;7381503;19;20081;-81
2023/01/05 04:31:14;;;;;;;0.10;0.10;;;11.70;13.60;;;;;;7389143;19;20009;-80
2023/01/05 04:33:44;;;;;;;0.47;0.10;;;11.60;14.10;;;;;;7383652;19;20530;-80
2023/01/05 04:36:16;;;;;;;0.10;0.10;;;11.70;13.60;;;;;;7388941;19;20013;-80
2023/01/05 04:38:46;;;;;;;0.00;0.00;;;11.70;13.30;;;;;;7378746;19;20015;-81
2023/01/05 04:41:16;;;;;;;0.10;0.10;;;11.70;13.10;;;;;;7388361;19;20015;-80
2023/01/05 04:43:46;;;;;;;0.20;0.10;;;11.80;14.10;;;;;;7385277;19;20031;-81
2023/01/05 04:46:16;;;;;;;0.75;0.38;;;11.80;14.10;;;;;;7388564;19;20025;-79
2023/01/05 04:48:45;;;;;;;0.10;0.10;;;11.60;16.20;;;;;;7380369;19;20035;-81
2023/01/05 04:51:18;;;;;;;0.10;0.10;;;11.60;16.10;;;;;;7388355;19;20021;-80
2023/01/05 04:53:48;;;;;;;1.60;0.10;;;11.60;16.50;;;;;;7385089;19;20475;-80
2023/01/05 04:56:18;;;;;;;0.45;0.08;;;11.60;17.00;;;;;;7386693;19;20007;-81
2023/01/05 04:58:48;;;;;;;0.50;0.32;;;11.50;18.60;;;;;;7379678;19;20011;-80
2023/01/05 05:01:18;;;;;;;0.70;0.38;;;11.50;20.10;;;;;;7388328;19;20356;-80
2023/01/05 05:03:48;;;;;;;0.47;0.10;;;11.30;22.90;;;;;;7384240;19;20007;-80
2023/01/05 05:06:20;;;;;;;1.00;0.10;;;11.30;24.20;;;;;;7387970;19;20467;-80
2023/01/05 05:08:50;;;;;;;1.38;0.20;;;11.20;26.30;;;;;;7380778;19;20018;-79
2023/01/05 05:11:20;;;;;;;0.10;0.10;;;11.10;27.60;;;;;;7395520;19;20003;-80
2023/01/05 05:13:50;;;;;;;0.20;0.10;;;11.10;29.50;;;;;;7391694;19;19998;-80
2023/01/05 05:16:20;;;;;;;0.73;0.10;;;11.00;31.30;;;;;;7395052;19;20011;-80
2023/01/05 05:18:50;;;;;;;0.30;0.17;;;10.90;34.20;;;;;;7385817;19;20014;-80
2023/01/05 05:21:22;;;;;;;0.13;0.10;;;10.80;35.50;;;;;;7393439;19;20392;-78
2023/01/05 05:23:52;;;;;;;0.15;0.03;;;10.80;37.00;;;;;;7391840;19;20462;-79
2023/01/05 05:26:22;;;;;;;0.20;0.10;;;10.70;38.20;;;;;;7394981;19;20015;-78
2023/01/05 05:28:51;;;;;;;0.10;0.10;;;10.70;39.70;;;;;;7385802;19;20030;-78
2023/01/05 05:31:21;;;;;;;0.28;0.20;;;10.60;41.10;;;;;;7394759;19;20015;-78
2023/01/05 05:33:51;;;;;;;0.40;0.20;;;10.60;41.80;;;;;;7391083;19;20556;-79
2023/01/05 05:36:23;;;;;;;0.52;0.28;;;10.60;41.70;;;;;;7394915;19;20043;-79
2023/01/05 05:38:55;;;;;;;0.55;0.20;;;10.60;39.70;;;;;;7384629;19;20014;-79
2023/01/05 05:41:25;;;;;;;0.85;0.20;;;10.60;39.20;;;;;;7394228;19;20081;-79
2023/01/05 05:43:59;;;;;;;2.10;0.35;;;10.50;39.60;;;;;;7390566;19;20474;-79
2023/01/05 05:46:29;;;;;;;0.82;0.25;;;10.60;37.60;;;;;;7393067;19;20359;-79
2023/01/05 05:49:00;;;;;;;0.30;0.20;;;10.60;37.60;;;;;;7386308;19;20074;-78
2023/01/05 05:51:32;;;;;;;1.75;1.00;;;10.60;37.30;;;;;;7394189;19;20088;-78
2023/01/05 05:54:02;;;;;;;2.10;0.77;;;10.50;38.40;;;;;;7390518;19;20489;-79
2023/01/05 05:56:32;;;;;;;1.92;0.57;;;10.50;38.00;;;;;;7393828;19;20017;-78
2023/01/05 05:59:02;;;;;;;1.13;0.47;;;10.50;37.30;;;;;;7384486;19;20346;-79
2023/01/05 06:01:32;;;;;;;3.30;0.82;;;10.50;36.80;;;;;;7393458;19;20010;-78
2023/01/05 06:04:02;;;;;;;1.25;0.70;;;10.50;36.90;;;;;;7390719;19;20010;-77
2023/01/05 06:06:34;;;;;;;1.42;0.80;;;10.50;35.70;;;;;;7393159;19;20455;-78
2023/01/05 06:09:04;;;;;;;4.47;1.00;;;10.40;37.40;;;;;;7386019;19;20523;-78
2023/01/05 06:11:34;;;;;;;3.05;0.80;;;10.40;37.00;;;;;;7393364;19;20017;-78
2023/01/05 06:14:05;;;;;;;3.15;0.88;;;10.40;36.40;;;;;;7389595;19;20010;-77
2023/01/05 06:16:35;;;;;;;4.25;1.17;;;10.30;36.80;;;;;;7393272;19;20458;-77
2023/01/05 06:19:04;;;;;;;3.20;1.02;;;10.30;36.60;;;;;;7383859;19;20014;-77
2023/01/05 06:21:37;;;;;;;3.67;0.90;;;10.30;35.30;;;;;;7390567;19;20010;-77
2023/01/05 06:24:08;;;;;;;4.20;1.15;;;10.30;35.60;;;;;;7390116;19;20450;-77
2023/01/05 06:26:38;;;;;;;3.88;1.35;;;10.30;37.40;;;;;;7391144;19;20462;-78
2023/01/05 06:29:07;;;;;;;3.10;0.80;;;10.20;37.70;;;;;;7386258;19;20014;-77
2023/01/05 06:31:37;;;;;;;4.00;1.25;;;10.30;36.40;;;;;;7391326;19;20007;-76
2023/01/05 06:34:07;;;;;;;3.65;1.02;;;10.20;37.10;;;;;;7387612;19;20026;-76
2023/01/05 06:36:39;;;;;;;2.28;0.90;;;10.20;37.00;;;;;;7391224;19;20039;-76
2023/01/05 06:39:09;;;;;;;3.92;1.20;;;10.30;34.90;;;;;;7384583;19;20035;-77
2023/01/05 06:41:39;;;;;;;6.00;1.35;;;10.30;33.00;;;;;;7390783;19;20066;-77
2023/01/05 06:44:09;;;;;;;5.88;1.30;;;10.40;29.60;;;;;;7388268;19;20042;-78
2023/01/05 06:46:39;;;;;;;3.63;0.90;;;10.40;29.50;;;;;;7393437;19;20006;-76
2023/01/05 06:49:10;;;;;;;5.35;1.00;;;10.40;29.10;;;;;;7384319;19;20025;-78
2023/01/05 06:51:43;;;;;;;4.43;1.27;;;10.40;29.10;;;;;;7391504;19;20057;-77
2023/01/05 06:54:13;;;;;;;8.70;1.13;;;10.40;29.00;;;;;;7388094;19;20038;-78
2023/01/05 06:56:43;;;;;;;4.35;1.30;;;10.30;29.30;;;;;;7391296;19;20022;-78
2023/01/05 06:59:13;;;;;;;4.25;1.20;;;10.30;29.10;;;;;;7382830;19;20483;-78
2023/01/05 07:01:43;;;;;;;6.18;1.30;;;10.40;29.00;;;;;;7390348;19;20077;-78
2023/01/05 07:04:13;;;;;;;3.40;1.13;;;10.40;29.20;;;;;;7387967;19;20478;-78
2023/01/05 07:06:45;;;;;;;5.88;1.52;;;10.40;28.90;;;;;;7391386;19;20023;-78
2023/01/05 07:09:15;;;;;;;3.75;1.10;;;10.40;29.10;;;;;;7382774;19;20521;-78
2023/01/05 07:11:45;;;;;;;6.03;1.63;;;10.40;27.50;;;;;;7391306;19;20025;-78
2023/01/05 07:14:15;;;;;;;4.28;1.50;;;10.40;28.30;;;;;;7386210;19;20035;-78
2023/01/05 07:16:44;;;;;;;5.70;1.42;;;10.40;26.70;;;;;;7390707;19;20078;-78
2023/01/05 07:19:14;;;;;;;3.00;1.33;;;10.40;27.30;;;;;;7383434;19;20010;-78
2023/01/05 07:21:47;;;;;;;4.45;1.33;;;10.40;26.60;;;;;;7390064;19;20017;-78
2023/01/05 07:24:25;;;;;;;7.97;1.23;;;10.40;27.00;;;;;;7387295;19;20026;-77
2023/01/05 07:26:55;;;;;;;5.47;1.88;;;10.40;26.80;;;;;;7390550;19;20006;-79
2023/01/05 07:29:24;;;;;;;6.30;2.30;;;10.40;26.30;;;;;;7381917;19;20386;-78
2023/01/05 07:31:54;;;;;;;2.92;1.38;;;10.50;25.20;;;;;;7389325;19;20080;-79
2023/01/05 07:34:24;;;;;;;4.22;1.42;;;10.50;25.10;;;;;;7385860;19;20014;-78
2023/01/05 07:36:57;;;;;;;6.47;1.20;;;10.40;25.80;;;;;;7390673;19;20489;-78
2023/01/05 07:39:26;;;;;;;7.30;1.45;;;10.40;25.90;;;;;;7346333;19;20018;-79
2023/01/05 07:41:56;;;;;;;6.13;1.73;;;10.40;25.40;;;;;;7382185;19;20545;-79
2023/01/05 07:44:26;;;;;;;9.13;1.50;;;10.40;25.90;;;;;;7381773;19;20753;-80
2023/01/05 07:46:57;;;;;;;6.05;1.60;;;10.40;24.70;;;;;;7360879;19;20013;-79
2023/01/05 07:49:28;;;;;;;4.63;1.15;;;10.50;23.20;;;;;;7353110;19;20002;-79
2023/01/05 07:52:00;;;;;;;6.63;1.40;;;10.50;23.50;;;;;;7362744;19;20490;-79
2023/01/05 07:54:30;;;;;;;7.43;2.13;;;10.40;23.90;;;;;;7358675;19;20048;-81
2023/01/05 07:57:00;;;;;;;7.47;1.60;;;10.40;24.00;;;;;;7383669;19;20092;-80
2023/01/05 07:59:30;;;;;;;6.38;1.60;;;10.50;23.10;;;;;;7352466;19;20010;-80
2023/01/05 08:02:00;;;;;;;5.93;1.50;;;10.50;22.40;;;;;;7360213;19;20013;-80
2023/01/05 08:04:29;;;;;;;5.07;1.80;;;10.50;22.40;;;;;;7357715;19;20069;-80
2023/01/05 08:07:03;;;;;;;5.38;1.70;;;10.50;22.40;;;;;;7361017;19;20035;-80
2023/01/05 08:12:18;;;;;;;7.82;1.58;;;10.50;20.80;;;;;;7356714;19;20010;-80
2023/01/05 08:14:48;;;;;;;5.72;1.30;;;10.50;20.60;;;;;;7382590;19;20017;-80
2023/01/05 08:17:17;;;;;;;5.88;1.65;;;10.50;21.10;;;;;;7360976;19;20014;-81
2023/01/05 08:19:47;;;;;;;4.75;1.58;;;10.60;19.30;;;;;;7351551;19;20017;-81
2023/01/05 08:22:20;;;;;;;5.43;1.58;;;10.60;18.60;;;;;;7358054;19;20083;-81
2023/01/05 08:24:51;;;;;;;9.38;2.03;;;10.60;18.60;;;;;;7359966;19;20011;-81
2023/01/05 08:27:20;;;;;;;7.35;1.52;;;10.60;17.70;;;;;;7359581;19;20033;-81
2023/01/05 08:29:50;;;;;;;7.47;1.45;;;10.70;16.80;;;;;;7373659;19;20037;-80
2023/01/05 08:32:20;;;;;;;5.18;1.30;;;10.70;15.60;;;;;;7356373;19;20011;-80
2023/01/05 08:34:50;;;;;;;5.25;1.30;;;10.70;14.30;;;;;;7359593;19;20393;-80
2023/01/05 08:37:27;;;;;;;5.07;1.33;;;10.70;13.50;;;;;;7360401;19;20058;-81
2023/01/05 08:39:57;;;;;;;8.60;1.40;;;10.70;13.70;;;;;;7351602;19;20014;-81
2023/01/05 08:42:27;;;;;;;4.07;1.33;;;10.70;12.50;;;;;;7382536;19;20018;-81
2023/01/05 08:44:56;;;;;;;7.53;2.03;;;10.70;11.80;;;;;;7394735;19;20102;-80
2023/01/05 08:47:26;;;;;;;8.82;1.58;;;10.70;11.00;;;;;;7393761;19;20553;-81
2023/01/05 08:49:57;;;;;;;7.68;1.73;;;10.70;8.30;;;;;;7386223;19;20014;-79
2023/01/05 08:52:29;;;;;;;10.70;1.60;;;10.70;8.30;;;;;;7392070;19;20017;-80
2023/01/05 08:54:59;;;;;;;6.93;2.00;;;10.70;8.30;;;;;;7394383;19;20017;-81
2023/01/05 08:57:29;;;;;;;7.32;2.20;;;10.70;8.50;;;;;;7393570;19;20043;-81
2023/01/05 08:59:59;;;;;;;6.00;1.80;;;10.70;9.10;;;;;;7386131;19;20357;-81
2023/01/05 09:02:28;;;;;;;7.10;1.80;;;10.70;10.00;;;;;;7390540;19;20014;-80
2023/01/05 09:04:59;;;;;;;6.32;1.83;;;10.60;10.70;;;;;;7395205;19;20037;-80
2023/01/05 09:07:31;;;;;;;6.75;2.25;;;10.70;11.10;;;;;;7394266;19;20014;-80
2023/01/05 09:10:01;;;;;;;9.55;1.77;;;10.70;10.00;;;;;;7385422;19;20050;-81
2023/01/05 09:12:31;;;;;;;5.15;1.77;;;10.80;9.70;;;;;;7392509;19;20101;-80
2023/01/05 09:15:02;;;;;;;5.80;1.73;;;10.80;9.50;;;;;;7393647;19;20122;-82
2023/01/05 09:17:32;;;;;;;5.72;1.50;;;10.80;9.80;;;;;;7396010;19;20014;-80
2023/01/05 09:20:02;;;;;;;6.22;1.60;;;10.80;9.00;;;;;;7385205;19;20023;-81
2023/01/05 09:22:35;;;;;;;7.55;1.55;;;10.80;9.20;;;;;;7389999;19;20010;-80
2023/01/05 09:25:06;;;;;;;4.88;2.00;;;10.80;8.30;;;;;;7394092;19;20078;-80
2023/01/05 09:27:36;;;;;;;8.45;1.67;;;10.80;8.30;;;;;;7394281;19;20019;-80
2023/01/05 09:30:07;;;;;;;10.57;2.08;;;10.80;5.40;;;;;;7383268;19;20033;-81
2023/01/05 09:32:38;;;;;;;9.35;1.73;;;10.80;6.20;;;;;;7392187;19;20006;-81
2023/01/05 09:35:09;;;;;;;10.25;1.77;;;10.90;4.70;;;;;;7390444;19;20535;-81
2023/01/05 09:37:42;;;;;;;7.88;2.13;;;10.90;3.90;;;;;;7394067;19;20025;-80
2023/01/05 09:40:14;;;;;;;7.13;2.03;;;10.80;3.10;;;;;;7384959;19;20093;-80
2023/01/05 09:42:48;;;;;;;7.47;1.90;;;10.90;1.00;;;;;;7390542;19;20459;-80
2023/01/05 09:45:26;;;;;;;9.70;2.03;;;10.90;1.00;;;;;;7393333;19;20038;-80
2023/01/05 09:47:58;;;;;;;7.50;1.70;;;10.90;1.00;;;;;;7391317;19;20062;-78
2023/01/05 09:50:30;;;;;;;11.20;2.40;;;10.90;1.00;;;;;;7384298;19;20006;-80
2023/01/05 09:53:02;;;;;;;12.27;2.10;;;10.90;1.00;;;;;;7390777;19;20351;-79
2023/01/05 09:55:34;;;;;;;10.13;2.03;;;10.80;1.00;;;;;;7390207;19;20010;-80
2023/01/05 09:58:09;;;;;;;9.75;1.98;;;10.90;1.00;;;;;;7390056;19;20019;-80
2023/01/05 10:00:42;;;;;;;9.27;2.55;;;10.90;1.00;;;;;;7385857;19;20007;-80
2023/01/05 10:03:18;;;;;;;10.00;1.58;;;10.90;1.00;;;;;;7387514;19;20534;-79
2023/01/05 10:06:14;;;;;;;17.80;2.72;;;10.80;1.00;;;;;;7392360;19;20018;-79
2023/01/05 10:08:51;;;;;;;11.00;2.30;;;10.80;1.00;;;;;;7384810;19;20052;-80
2023/01/05 10:14:14;;;;;;;10.27;2.60;;;10.80;1.00;;;;;;7386055;19;20014;-81
2023/01/05 10:16:46;;;;;;;11.18;2.55;;;10.80;1.00;;;;;;7391062;19;20512;-80
2023/01/05 10:19:31;;;;;;;9.65;2.50;;;10.80;1.00;;;;;;7382923;19;20014;-80
2023/01/05 10:22:12;;;;;;;13.93;2.50;;;10.80;1.00;;;;;;7390763;19;20035;-80
2023/01/05 10:24:52;;;;;;;10.93;1.98;;;10.90;1.00;;;;;;7388529;19;20025;-80
2023/01/05 10:27:29;;;;;;;12.45;2.45;;;10.90;1.00;;;;;;7389758;19;20366;-81
2023/01/05 10:30:10;;;;;;;13.25;2.60;;;10.90;1.00;;;;;;7381769;19;20010;-80
2023/01/05 10:32:49;;;;;;;13.18;2.83;;;11.00;1.00;;;;;;7387743;19;20091;-80
2023/01/05 10:35:31;;;;;;;12.27;2.45;;;11.00;1.00;;;;;;7390133;19;20026;-80
2023/01/05 10:38:35;;;;;;;7.78;2.45;;;11.00;1.00;;;;;;7386378;19;20018;-80
2023/01/05 10:41:18;;;;;;;9.50;2.10;;;11.10;1.00;;;;;;7386620;19;20481;-79
2023/01/05 10:44:03;;;;;;;12.65;3.22;;;11.10;1.00;;;;;;7385300;19;20526;-80
2023/01/05 10:46:34;;;;;;;10.40;2.55;;;11.10;1.00;;;;;;7388291;19;20024;-80
2023/01/05 10:49:20;;;;;;;7.40;2.53;;;11.10;1.00;;;;;;7387199;19;20045;-80
2023/01/05 10:51:52;;;;;;;12.30;3.20;;;11.20;1.00;;;;;;7350233;19;20641;-80
2023/01/05 10:54:37;;;;;;;9.88;2.53;;;11.20;1.00;;;;;;7382812;19;20018;-77
2023/01/05 10:57:43;;;;;;;11.48;3.10;;;11.20;1.00;;;;;;7358439;19;20784;-80
2023/01/05 11:00:17;;;;;;;10.55;2.05;;;11.20;1.00;;;;;;7359483;19;20020;-79
2023/01/05 11:02:51;;;;;;;14.98;2.70;;;11.20;1.00;;;;;;7358847;19;20014;-80
2023/01/05 11:05:29;;;;;;;14.07;2.60;;;11.20;1.00;;;;;;7359722;19;20017;-80
2023/01/05 11:08:02;;;;;;;9.18;2.65;;;11.30;1.00;;;;;;7362006;19;20014;-81
2023/01/05 11:10:34;;;;;;;8.35;2.15;;;11.20;1.00;;;;;;7352781;19;20010;-81
2023/01/05 11:13:19;;;;;;;13.57;2.47;;;11.20;1.00;;;;;;7382267;19;20485;-80
2023/01/05 11:15:54;;;;;;;12.30;2.75;;;11.30;1.00;;;;;;7363522;19;20070;-80
2023/01/05 11:18:27;;;;;;;10.05;1.98;;;11.20;1.00;;;;;;7362649;19;20522;-80
2023/01/05 11:21:08;;;;;;;13.75;2.92;;;11.20;1.00;;;;;;7356626;19;20018;-80
2023/01/05 11:23:41;;;;;;;10.57;2.28;;;11.20;1.00;;;;;;7361854;19;20482;-80
2023/01/05 11:26:23;;;;;;;15.15;3.28;;;11.20;1.00;;;;;;7361772;19;20117;-80
2023/01/05 11:29:16;;;;;;;13.20;2.63;;;11.20;1.00;;;;;;7360478;19;20066;-81
2023/01/05 11:31:53;;;;;;;12.23;2.40;;;11.20;1.00;;;;;;7354947;19;20483;-80
2023/01/05 11:34:32;;;;;;;9.80;3.00;;;11.20;1.00;;;;;;7360509;19;20016;-80
2023/01/05 11:37:05;;;;;;;13.43;2.70;;;11.20;1.00;;;;;;7383778;19;20014;-80
2023/01/05 11:39:42;;;;;;;9.50;2.20;;;11.30;1.00;;;;;;7358182;19;20051;-80
2023/01/05 11:42:15;;;;;;;10.77;2.40;;;11.30;1.00;;;;;;7356171;19;20545;-81
2023/01/05 11:44:59;;;;;;;14.15;2.38;;;11.30;1.00;;;;;;7361026;19;20544;-81
2023/01/05 11:47:33;;;;;;;11.82;2.67;;;11.30;1.00;;;;;;7361872;19;20673;-81
2023/01/05 11:50:21;;;;;;;12.85;2.85;;;11.30;1.00;;;;;;7356959;19;20035;-80
2023/01/05 11:52:52;;;;;;;16.20;3.25;;;11.30;1.00;;;;;;7389240;19;20002;-80
2023/01/05 11:55:32;;;;;;;10.38;2.78;;;11.30;1.00;;;;;;7388974;19;20483;-81
2023/01/05 11:58:24;;;;;;;12.88;2.72;;;11.30;1.00;;;;;;7391086;19;20026;-80
2023/01/05 12:01:13;;;;;;;16.05;3.05;;;11.20;1.00;;;;;;7384222;19;20078;-81
2023/01/05 12:04:01;;;;;;;14.90;2.85;;;11.30;1.00;;;;;;7388524;19;20017;-80
2023/01/05 12:06:56;;;;;;;13.45;2.55;;;11.30;1.00;;;;;;7390580;19;20023;-81
2023/01/05 12:09:30;;;;;;;11.77;2.65;;;11.30;1.00;;;;;;7334231;19;20082;-80
2023/01/05 12:12:38;;;;;;;15.35;3.15;;;11.30;1.00;;;;;;7384233;19;20007;-82
2023/01/05 12:15:26;;;;;;;11.35;2.78;;;11.30;1.00;;;;;;7389994;19;20087;-80
2023/01/05 12:18:11;;;;;;;14.82;2.72;;;11.30;1.00;;;;;;7393108;19;20078;-82
2023/01/05 12:21:05;;;;;;;12.80;2.78;;;11.20;1.00;;;;;;7338578;19;20011;-81
2023/01/05 12:24:10;;;;;;;11.60;2.47;;;11.20;1.00;;;;;;7365715;19;20023;-83
2023/01/05 12:26:51;;;;;;;9.77;2.17;;;11.20;1.00;;;;;;7368280;19;20026;-82
2023/01/05 12:29:52;;;;;;;9.98;2.88;;;11.20;1.00;;;;;;7366099;19;20015;-83
2023/01/05 12:32:58;;;;;;;9.32;2.50;;;11.10;1.00;;;;;;7366039;19;20015;-81
2023/01/05 12:36:12;;;;;;;17.15;2.53;;;11.10;1.00;;;;;;7367947;19;20014;-82
2023/01/05 12:38:51;;;;;;;12.40;3.15;;;11.10;1.00;;;;;;7366707;19;20094;-82
2023/01/05 12:41:42;;;;;;;11.65;2.53;;;11.10;1.00;;;;;;7363979;19;20010;-82
2023/01/05 12:44:47;;;;;;;16.48;3.00;;;11.10;1.00;;;;;;7368039;19;20078;-82
2023/01/05 12:47:36;;;;;;;11.63;2.37;;;11.00;1.00;;;;;;7369406;19;20622;-83
2023/01/05 12:50:21;;;;;;;14.93;3.22;;;11.00;1.00;;;;;;7366332;19;20291;-82
2023/01/05 12:52:59;;;;;;;13.45;2.92;;;11.00;1.00;;;;;;7362993;19;20014;-84
2023/01/05 12:55:33;;;;;;;13.93;2.75;;;11.00;1.00;;;;;;7366805;19;20016;-82
2023/01/05 12:58:07;;;;;;;10.82;2.63;;;11.00;1.00;;;;;;7366702;19;20011;-81
2023/01/05 13:00:44;;;;;;;10.02;2.60;;;11.00;1.00;;;;;;7380161;19;20082;-82
2023/01/05 13:03:24;;;;;;;14.88;2.83;;;11.00;1.00;;;;;;7366789;19;20123;-83
2023/01/05 13:06:02;;;;;;;16.15;3.40;;;11.00;1.00;;;;;;7369459;19;20131;-81
2023/01/05 13:08:40;;;;;;;12.63;2.42;;;11.00;1.00;;;;;;7363092;19;20021;-82
2023/01/05 13:11:18;;;;;;;8.20;2.17;;;11.00;1.00;;;;;;7359999;19;20493;-83
2023/01/05 13:13:52;;;;;;;12.98;2.58;;;11.00;1.00;;;;;;7367492;19;20021;-81
2023/01/05 13:16:24;;;;;;;16.95;2.90;;;11.00;1.00;;;;;;7365540;19;20538;-82
2023/01/05 13:18:59;;;;;;;11.45;2.30;;;11.00;1.00;;;;;;7364362;19;20591;-82
2023/01/05 13:21:30;;;;;;;12.80;3.03;;;11.00;1.00;;;;;;7389845;19;20010;-81
2023/01/05 13:24:08;;;;;;;16.88;3.30;;;11.00;1.00;;;;;;7394846;19;20355;-81
2023/01/05 13:26:38;;;;;;;6.93;2.00;;;11.00;1.00;;;;;;7397108;19;20265;-81
2023/01/05 13:29:13;;;;;;;11.48;2.50;;;11.00;1.00;;;;;;7393271;19;20074;-82
2023/01/05 13:31:59;;;;;;;14.75;3.00;;;11.00;1.00;;;;;;7386713;19;20018;-81
2023/01/05 13:34:45;;;;;;;21.60;3.75;;;11.10;1.00;;;;;;7394718;19;20032;-82
2023/01/05 13:37:53;;;;;;;14.30;5.10;;;11.10;1.00;;;;;;7392740;19;20335;-82
2023/01/05 13:40:37;;;;;;;15.38;2.90;;;11.10;1.00;;;;;;7385903;19;20010;-82
2023/01/05 13:43:32;;;;;;;15.15;3.38;;;11.00;1.00;;;;;;7392679;19;20010;-83
2023/01/05 13:46:18;;;;;;;12.93;2.40;;;11.00;1.00;;;;;;7394207;19;20097;-83
2023/01/05 13:49:07;;;;;;;16.50;4.07;;;11.10;1.00;;;;;;7394961;19;20022;-82
2023/01/05 13:51:54;;;;;;;17.20;3.47;;;11.10;1.00;;;;;;7352133;19;20181;-82
2023/01/05 13:54:40;;;;;;;13.25;3.75;;;11.00;1.00;;;;;;7389221;19;20036;-82
2023/01/05 13:57:38;;;;;;;16.83;3.10;;;11.00;1.00;;;;;;7368312;19;20049;-80
2023/01/05 14:00:21;;;;;;;13.60;3.08;;;11.00;1.00;;;;;;7364929;19;20007;-81
2023/01/05 14:03:06;;;;;;;16.30;3.45;;;11.00;1.00;;;;;;7365897;19;20010;-79
2023/01/05 14:05:47;;;;;;;15.45;4.07;;;11.10;1.00;;;;;;7376265;19;20050;-80